sensor_id;sensor_type;location;lat;lon;timestamp;P1;durP1;ratioP1;P2;durP2;ratioP2
13855;SDS011;6998;53.608;9.958;2023-06-22T00:01:59;3.63;;;3.33;;
13855;SDS011;6998;53.608;9.958;2023-06-22T00:04:28;4.40;;;3.55;;
13855;SDS011;6998;53.608;9.958;2023-06-22T00:06:54;3.97;;;3.58;;
13855;SDS011;6998;53.608;9.958;2023-06-22T00:09:21;3.88;;;3.58;;
13855;SDS011;6998;53.608;9.958;2023-06-22T00:11:48;5.03;;;3.67;;
13855;SDS011;6998;53.608;9.958;2023-06-22T00:14:15;4.22;;;3.70;;
13855;SDS011;6998;53.608;9.958;2023-06-22T00:16:41;4.53;;;3.50;;
13855;SDS011;6998;53.608;9.958;2023-06-22T00:19:08;4.03;;;3.63;;
13855;SDS011;6998;53.608;9.958;2023-06-22T00:21:38;4.25;;;3.28;;
13855;SDS011;6998;53.608;9.958;2023-06-22T00:24:05;3.92;;;3.55;;
13855;SDS011;6998;53.608;9.958;2023-06-22T00:26:32;4.80;;;3.40;;
13855;SDS011;6998;53.608;9.958;2023-06-22T00:28:59;3.85;;;3.20;;
13855;SDS011;6998;53.608;9.958;2023-06-22T00:31:25;4.57;;;3.30;;
13855;SDS011;6998;53.608;9.958;2023-06-22T00:33:52;4.57;;;3.55;;
13855;SDS011;6998;53.608;9.958;2023-06-22T00:36:19;4.38;;;3.58;;
13855;SDS011;6998;53.608;9.958;2023-06-22T00:38:47;3.72;;;3.33;;
13855;SDS011;6998;53.608;9.958;2023-06-22T00:41:15;3.88;;;3.47;;
13855;SDS011;6998;53.608;9.958;2023-06-22T00:43:42;4.43;;;3.45;;
13855;SDS011;6998;53.608;9.958;2023-06-22T00:46:09;4.13;;;3.58;;
13855;SDS011;6998;53.608;9.958;2023-06-22T00:48:36;3.72;;;3.42;;
13855;SDS011;6998;53.608;9.958;2023-06-22T00:51:03;3.88;;;3.58;;
13855;SDS011;6998;53.608;9.958;2023-06-22T00:53:30;4.35;;;3.60;;
13855;SDS011;6998;53.608;9.958;2023-06-22T00:56:01;5.07;;;3.80;;
13855;SDS011;6998;53.608;9.958;2023-06-22T00:58:28;5.93;;;3.50;;
13855;SDS011;6998;53.608;9.958;2023-06-22T01:00:56;4.25;;;3.45;;
13855;SDS011;6998;53.608;9.958;2023-06-22T01:03:23;3.88;;;3.47;;
13855;SDS011;6998;53.608;9.958;2023-06-22T01:05:49;4.25;;;3.65;;
13855;SDS011;6998;53.608;9.958;2023-06-22T01:08:21;3.83;;;3.53;;
13855;SDS011;6998;53.608;9.958;2023-06-22T01:10:56;4.53;;;3.83;;
13855;SDS011;6998;53.608;9.958;2023-06-22T01:13:32;4.15;;;3.70;;
13855;SDS011;6998;53.608;9.958;2023-06-22T01:16:05;4.22;;;3.88;;
13855;SDS011;6998;53.608;9.958;2023-06-22T01:18:36;4.25;;;3.65;;
13855;SDS011;6998;53.608;9.958;2023-06-22T01:21:08;3.90;;;3.22;;
13855;SDS011;6998;53.608;9.958;2023-06-22T01:23:46;4.13;;;3.60;;
13855;SDS011;6998;53.608;9.958;2023-06-22T01:26:25;4.28;;;3.70;;
13855;SDS011;6998;53.608;9.958;2023-06-22T01:29:10;4.78;;;4.00;;
13855;SDS011;6998;53.608;9.958;2023-06-22T01:31:39;4.28;;;3.88;;
13855;SDS011;6998;53.608;9.958;2023-06-22T01:34:07;4.55;;;4.10;;
13855;SDS011;6998;53.608;9.958;2023-06-22T01:36:35;4.60;;;4.20;;
13855;SDS011;6998;53.608;9.958;2023-06-22T01:39:03;4.03;;;3.58;;
13855;SDS011;6998;53.608;9.958;2023-06-22T01:41:33;4.53;;;3.95;;
13855;SDS011;6998;53.608;9.958;2023-06-22T01:44:02;5.18;;;4.13;;
13855;SDS011;6998;53.608;9.958;2023-06-22T01:46:32;4.82;;;3.90;;
13855;SDS011;6998;53.608;9.958;2023-06-22T01:49:00;4.65;;;3.90;;
13855;SDS011;6998;53.608;9.958;2023-06-22T01:51:28;4.70;;;4.20;;
13855;SDS011;6998;53.608;9.958;2023-06-22T01:53:55;4.40;;;4.00;;
13855;SDS011;6998;53.608;9.958;2023-06-22T01:56:22;4.53;;;3.70;;
13855;SDS011;6998;53.608;9.958;2023-06-22T01:58:50;4.13;;;3.72;;
13855;SDS011;6998;53.608;9.958;2023-06-22T02:01:23;4.28;;;3.88;;
13855;SDS011;6998;53.608;9.958;2023-06-22T02:03:57;4.15;;;3.78;;
13855;SDS011;6998;53.608;9.958;2023-06-22T02:06:31;4.47;;;3.60;;
13855;SDS011;6998;53.608;9.958;2023-06-22T02:09:02;4.70;;;4.15;;
13855;SDS011;6998;53.608;9.958;2023-06-22T02:11:33;4.63;;;3.80;;
13855;SDS011;6998;53.608;9.958;2023-06-22T02:14:02;4.88;;;4.35;;
13855;SDS011;6998;53.608;9.958;2023-06-22T02:16:31;4.25;;;3.85;;
13855;SDS011;6998;53.608;9.958;2023-06-22T02:19:00;5.60;;;3.80;;
13855;SDS011;6998;53.608;9.958;2023-06-22T02:21:29;4.40;;;4.00;;
13855;SDS011;6998;53.608;9.958;2023-06-22T02:23:56;4.57;;;4.13;;
13855;SDS011;6998;53.608;9.958;2023-06-22T02:26:23;4.80;;;3.85;;
13855;SDS011;6998;53.608;9.958;2023-06-22T02:28:51;4.47;;;4.05;;
13855;SDS011;6998;53.608;9.958;2023-06-22T02:31:18;4.00;;;3.67;;
13855;SDS011;6998;53.608;9.958;2023-06-22T02:33:46;4.32;;;3.92;;
13855;SDS011;6998;53.608;9.958;2023-06-22T02:36:14;4.32;;;3.88;;
13855;SDS011;6998;53.608;9.958;2023-06-22T02:38:41;5.47;;;3.88;;
13855;SDS011;6998;53.608;9.958;2023-06-22T02:41:13;4.55;;;4.20;;
13855;SDS011;6998;53.608;9.958;2023-06-22T02:43:43;4.50;;;4.10;;
13855;SDS011;6998;53.608;9.958;2023-06-22T02:46:10;4.95;;;4.38;;
13855;SDS011;6998;53.608;9.958;2023-06-22T02:48:37;5.82;;;4.32;;
13855;SDS011;6998;53.608;9.958;2023-06-22T02:51:04;4.95;;;4.53;;
13855;SDS011;6998;53.608;9.958;2023-06-22T02:53:33;4.72;;;4.32;;
13855;SDS011;6998;53.608;9.958;2023-06-22T02:56:00;5.38;;;4.72;;
13855;SDS011;6998;53.608;9.958;2023-06-22T02:58:28;5.22;;;3.90;;
13855;SDS011;6998;53.608;9.958;2023-06-22T03:00:55;4.55;;;4.15;;
13855;SDS011;6998;53.608;9.958;2023-06-22T03:03:21;4.45;;;4.05;;
13855;SDS011;6998;53.608;9.958;2023-06-22T03:05:51;4.50;;;4.10;;
13855;SDS011;6998;53.608;9.958;2023-06-22T03:08:18;4.65;;;4.25;;
13855;SDS011;6998;53.608;9.958;2023-06-22T03:10:46;4.63;;;4.20;;
13855;SDS011;6998;53.608;9.958;2023-06-22T03:13:13;5.30;;;4.80;;
13855;SDS011;6998;53.608;9.958;2023-06-22T03:15:39;4.78;;;4.38;;
13855;SDS011;6998;53.608;9.958;2023-06-22T03:18:06;4.88;;;4.28;;
13855;SDS011;6998;53.608;9.958;2023-06-22T03:20:33;4.80;;;4.40;;
13855;SDS011;6998;53.608;9.958;2023-06-22T03:23:00;4.68;;;4.28;;
13855;SDS011;6998;53.608;9.958;2023-06-22T03:25:26;5.88;;;4.38;;
13855;SDS011;6998;53.608;9.958;2023-06-22T03:27:54;5.45;;;4.50;;
13855;SDS011;6998;53.608;9.958;2023-06-22T03:30:21;4.78;;;4.28;;
13855;SDS011;6998;53.608;9.958;2023-06-22T03:32:48;4.95;;;4.45;;
13855;SDS011;6998;53.608;9.958;2023-06-22T03:35:15;5.43;;;4.35;;
13855;SDS011;6998;53.608;9.958;2023-06-22T03:37:42;5.05;;;4.57;;
13855;SDS011;6998;53.608;9.958;2023-06-22T03:40:09;6.18;;;5.32;;
13855;SDS011;6998;53.608;9.958;2023-06-22T03:42:36;5.30;;;4.80;;
13855;SDS011;6998;53.608;9.958;2023-06-22T03:45:05;5.25;;;4.75;;
13855;SDS011;6998;53.608;9.958;2023-06-22T03:47:32;5.22;;;4.72;;
13855;SDS011;6998;53.608;9.958;2023-06-22T03:49:59;4.97;;;4.47;;
13855;SDS011;6998;53.608;9.958;2023-06-22T03:52:28;5.53;;;4.57;;
13855;SDS011;6998;53.608;9.958;2023-06-22T03:54:55;5.07;;;4.50;;
13855;SDS011;6998;53.608;9.958;2023-06-22T03:57:22;5.65;;;5.00;;
13855;SDS011;6998;53.608;9.958;2023-06-22T03:59:48;5.03;;;4.53;;
13855;SDS011;6998;53.608;9.958;2023-06-22T04:02:16;5.13;;;4.63;;
13855;SDS011;6998;53.608;9.958;2023-06-22T04:04:43;5.03;;;4.50;;
13855;SDS011;6998;53.608;9.958;2023-06-22T04:07:10;5.28;;;4.22;;
13855;SDS011;6998;53.608;9.958;2023-06-22T04:09:37;4.50;;;4.00;;
13855;SDS011;6998;53.608;9.958;2023-06-22T04:12:04;5.28;;;4.70;;
13855;SDS011;6998;53.608;9.958;2023-06-22T04:14:31;6.32;;;4.30;;
13855;SDS011;6998;53.608;9.958;2023-06-22T04:16:58;4.75;;;4.35;;
13855;SDS011;6998;53.608;9.958;2023-06-22T04:19:26;4.47;;;4.07;;
13855;SDS011;6998;53.608;9.958;2023-06-22T04:21:53;5.25;;;4.75;;
13855;SDS011;6998;53.608;9.958;2023-06-22T04:24:19;4.68;;;4.15;;
13855;SDS011;6998;53.608;9.958;2023-06-22T04:26:46;4.90;;;4.18;;
13855;SDS011;6998;53.608;9.958;2023-06-22T04:29:13;6.13;;;4.40;;
13855;SDS011;6998;53.608;9.958;2023-06-22T04:31:40;4.93;;;4.43;;
13855;SDS011;6998;53.608;9.958;2023-06-22T04:34:07;4.53;;;4.13;;
13855;SDS011;6998;53.608;9.958;2023-06-22T04:36:36;4.63;;;4.22;;
13855;SDS011;6998;53.608;9.958;2023-06-22T04:39:04;5.50;;;4.80;;
13855;SDS011;6998;53.608;9.958;2023-06-22T04:41:32;5.45;;;4.95;;
13855;SDS011;6998;53.608;9.958;2023-06-22T04:44:06;5.07;;;4.40;;
13855;SDS011;6998;53.608;9.958;2023-06-22T04:46:34;5.40;;;4.80;;
13855;SDS011;6998;53.608;9.958;2023-06-22T04:49:03;6.63;;;4.75;;
13855;SDS011;6998;53.608;9.958;2023-06-22T04:51:36;5.00;;;4.50;;
13855;SDS011;6998;53.608;9.958;2023-06-22T04:54:03;5.28;;;4.57;;
13855;SDS011;6998;53.608;9.958;2023-06-22T04:56:30;5.30;;;4.80;;
13855;SDS011;6998;53.608;9.958;2023-06-22T04:58:57;5.38;;;4.88;;
13855;SDS011;6998;53.608;9.958;2023-06-22T05:01:24;6.03;;;5.43;;
13855;SDS011;6998;53.608;9.958;2023-06-22T05:03:54;6.50;;;5.38;;
13855;SDS011;6998;53.608;9.958;2023-06-22T05:06:21;6.78;;;6.07;;
13855;SDS011;6998;53.608;9.958;2023-06-22T05:08:51;6.15;;;5.55;;
13855;SDS011;6998;53.608;9.958;2023-06-22T05:11:24;6.07;;;5.47;;
13855;SDS011;6998;53.608;9.958;2023-06-22T05:13:51;7.63;;;5.82;;
13855;SDS011;6998;53.608;9.958;2023-06-22T05:16:21;6.82;;;6.03;;
13855;SDS011;6998;53.608;9.958;2023-06-22T05:18:50;7.70;;;6.97;;
13855;SDS011;6998;53.608;9.958;2023-06-22T05:21:19;7.07;;;6.38;;
13855;SDS011;6998;53.608;9.958;2023-06-22T05:23:48;9.25;;;6.25;;
13855;SDS011;6998;53.608;9.958;2023-06-22T05:26:18;9.13;;;6.03;;
13855;SDS011;6998;53.608;9.958;2023-06-22T05:28:45;7.78;;;6.78;;
13855;SDS011;6998;53.608;9.958;2023-06-22T05:31:13;7.57;;;6.75;;
13855;SDS011;6998;53.608;9.958;2023-06-22T05:33:40;8.75;;;6.07;;
13855;SDS011;6998;53.608;9.958;2023-06-22T05:36:07;6.15;;;5.32;;
13855;SDS011;6998;53.608;9.958;2023-06-22T05:38:35;7.47;;;5.50;;
13855;SDS011;6998;53.608;9.958;2023-06-22T05:41:02;5.78;;;5.28;;
13855;SDS011;6998;53.608;9.958;2023-06-22T05:43:30;5.38;;;4.65;;
13855;SDS011;6998;53.608;9.958;2023-06-22T05:45:57;5.57;;;3.70;;
13855;SDS011;6998;53.608;9.958;2023-06-22T05:48:24;5.30;;;4.38;;
13855;SDS011;6998;53.608;9.958;2023-06-22T05:50:51;5.13;;;3.72;;
13855;SDS011;6998;53.608;9.958;2023-06-22T05:53:18;3.80;;;3.40;;
13855;SDS011;6998;53.608;9.958;2023-06-22T05:55:44;3.50;;;3.17;;
13855;SDS011;6998;53.608;9.958;2023-06-22T05:58:15;4.28;;;3.40;;
13855;SDS011;6998;53.608;9.958;2023-06-22T06:00:43;5.20;;;3.50;;
13855;SDS011;6998;53.608;9.958;2023-06-22T06:03:11;5.68;;;3.42;;
13855;SDS011;6998;53.608;9.958;2023-06-22T06:05:42;4.05;;;3.55;;
13855;SDS011;6998;53.608;9.958;2023-06-22T06:08:09;4.15;;;3.75;;
13855;SDS011;6998;53.608;9.958;2023-06-22T06:10:37;5.07;;;3.90;;
13855;SDS011;6998;53.608;9.958;2023-06-22T06:13:04;3.60;;;3.30;;
13855;SDS011;6998;53.608;9.958;2023-06-22T06:15:31;3.70;;;3.33;;
13855;SDS011;6998;53.608;9.958;2023-06-22T06:17:59;3.42;;;3.10;;
13855;SDS011;6998;53.608;9.958;2023-06-22T06:20:27;5.75;;;3.10;;
13855;SDS011;6998;53.608;9.958;2023-06-22T06:22:54;4.55;;;3.03;;
13855;SDS011;6998;53.608;9.958;2023-06-22T06:25:21;5.45;;;3.00;;
13855;SDS011;6998;53.608;9.958;2023-06-22T06:27:49;2.83;;;2.60;;
13855;SDS011;6998;53.608;9.958;2023-06-22T06:30:17;3.00;;;2.70;;
13855;SDS011;6998;53.608;9.958;2023-06-22T06:32:45;5.50;;;3.03;;
13855;SDS011;6998;53.608;9.958;2023-06-22T06:35:16;4.70;;;3.00;;
13855;SDS011;6998;53.608;9.958;2023-06-22T06:37:47;4.30;;;3.33;;
13855;SDS011;6998;53.608;9.958;2023-06-22T06:40:17;3.30;;;3.00;;
13855;SDS011;6998;53.608;9.958;2023-06-22T06:42:46;4.07;;;3.30;;
13855;SDS011;6998;53.608;9.958;2023-06-22T06:45:27;4.45;;;3.13;;
13855;SDS011;6998;53.608;9.958;2023-06-22T06:48:00;3.28;;;2.63;;
13855;SDS011;6998;53.608;9.958;2023-06-22T06:50:29;3.10;;;2.80;;
13855;SDS011;6998;53.608;9.958;2023-06-22T06:52:58;3.22;;;2.90;;
13855;SDS011;6998;53.608;9.958;2023-06-22T06:55:25;4.97;;;3.30;;
13855;SDS011;6998;53.608;9.958;2023-06-22T06:57:57;3.22;;;2.92;;
13855;SDS011;6998;53.608;9.958;2023-06-22T07:00:24;3.15;;;2.67;;
13855;SDS011;6998;53.608;9.958;2023-06-22T07:02:56;3.22;;;2.92;;
13855;SDS011;6998;53.608;9.958;2023-06-22T07:05:23;3.85;;;3.15;;
13855;SDS011;6998;53.608;9.958;2023-06-22T07:07:51;3.50;;;3.17;;
13855;SDS011;6998;53.608;9.958;2023-06-22T07:10:19;3.20;;;2.83;;
13855;SDS011;6998;53.608;9.958;2023-06-22T07:12:46;3.72;;;2.97;;
13855;SDS011;6998;53.608;9.958;2023-06-22T07:15:13;3.42;;;2.90;;
13855;SDS011;6998;53.608;9.958;2023-06-22T07:17:42;3.92;;;2.90;;
13855;SDS011;6998;53.608;9.958;2023-06-22T07:20:22;3.38;;;2.83;;
13855;SDS011;6998;53.608;9.958;2023-06-22T07:22:58;4.75;;;3.25;;
13855;SDS011;6998;53.608;9.958;2023-06-22T07:25:36;3.47;;;2.83;;
13855;SDS011;6998;53.608;9.958;2023-06-22T07:28:25;3.95;;;2.90;;
13855;SDS011;6998;53.608;9.958;2023-06-22T07:30:57;3.30;;;3.00;;
13855;SDS011;6998;53.608;9.958;2023-06-22T07:33:28;3.25;;;2.92;;
13855;SDS011;6998;53.608;9.958;2023-06-22T07:35:59;4.13;;;2.70;;
13855;SDS011;6998;53.608;9.958;2023-06-22T07:38:31;3.95;;;2.72;;
13855;SDS011;6998;53.608;9.958;2023-06-22T07:41:05;3.60;;;2.80;;
13855;SDS011;6998;53.608;9.958;2023-06-22T07:43:37;4.40;;;2.80;;
13855;SDS011;6998;53.608;9.958;2023-06-22T07:46:13;3.10;;;2.80;;
13855;SDS011;6998;53.608;9.958;2023-06-22T07:48:57;3.00;;;2.70;;
13855;SDS011;6998;53.608;9.958;2023-06-22T07:51:34;3.97;;;3.08;;
13855;SDS011;6998;53.608;9.958;2023-06-22T07:56:49;3.05;;;2.75;;
13855;SDS011;6998;53.608;9.958;2023-06-22T07:59:18;3.85;;;2.55;;
13855;SDS011;6998;53.608;9.958;2023-06-22T08:01:45;4.25;;;3.00;;
13855;SDS011;6998;53.608;9.958;2023-06-22T08:04:14;4.32;;;2.97;;
13855;SDS011;6998;53.608;9.958;2023-06-22T08:06:44;3.17;;;2.80;;
13855;SDS011;6998;53.608;9.958;2023-06-22T08:09:10;4.15;;;3.00;;
13855;SDS011;6998;53.608;9.958;2023-06-22T08:11:39;3.75;;;3.05;;
13855;SDS011;6998;53.608;9.958;2023-06-22T08:14:07;5.75;;;3.03;;
13855;SDS011;6998;53.608;9.958;2023-06-22T08:16:34;2.83;;;2.53;;
13855;SDS011;6998;53.608;9.958;2023-06-22T08:19:01;4.18;;;3.08;;
13855;SDS011;6998;53.608;9.958;2023-06-22T08:21:30;2.95;;;2.63;;
13855;SDS011;6998;53.608;9.958;2023-06-22T08:23:57;4.03;;;3.00;;
13855;SDS011;6998;53.608;9.958;2023-06-22T08:26:23;3.28;;;2.85;;
13855;SDS011;6998;53.608;9.958;2023-06-22T08:28:53;4.75;;;2.58;;
13855;SDS011;6998;53.608;9.958;2023-06-22T08:31:23;2.85;;;2.45;;
13855;SDS011;6998;53.608;9.958;2023-06-22T08:33:49;3.50;;;2.90;;
13855;SDS011;6998;53.608;9.958;2023-06-22T08:36:17;3.13;;;2.35;;
13855;SDS011;6998;53.608;9.958;2023-06-22T08:38:43;2.90;;;2.58;;
13855;SDS011;6998;53.608;9.958;2023-06-22T08:41:13;3.20;;;2.90;;
13855;SDS011;6998;53.608;9.958;2023-06-22T08:43:40;2.75;;;2.53;;
13855;SDS011;6998;53.608;9.958;2023-06-22T08:46:09;3.40;;;2.80;;
13855;SDS011;6998;53.608;9.958;2023-06-22T08:48:38;3.58;;;3.10;;
13855;SDS011;6998;53.608;9.958;2023-06-22T08:51:08;3.15;;;2.85;;
13855;SDS011;6998;53.608;9.958;2023-06-22T08:53:35;4.50;;;2.50;;
13855;SDS011;6998;53.608;9.958;2023-06-22T08:56:03;5.55;;;2.78;;
13855;SDS011;6998;53.608;9.958;2023-06-22T08:58:30;3.45;;;3.08;;
13855;SDS011;6998;53.608;9.958;2023-06-22T09:00:57;4.85;;;2.72;;
13855;SDS011;6998;53.608;9.958;2023-06-22T09:03:27;3.13;;;2.70;;
13855;SDS011;6998;53.608;9.958;2023-06-22T09:05:54;3.17;;;2.42;;
13855;SDS011;6998;53.608;9.958;2023-06-22T09:08:21;3.60;;;2.60;;
13855;SDS011;6998;53.608;9.958;2023-06-22T09:10:48;2.78;;;2.50;;
13855;SDS011;6998;53.608;9.958;2023-06-22T09:13:15;3.95;;;2.50;;
13855;SDS011;6998;53.608;9.958;2023-06-22T09:15:41;3.13;;;2.70;;
13855;SDS011;6998;53.608;9.958;2023-06-22T09:18:10;4.30;;;2.60;;
13855;SDS011;6998;53.608;9.958;2023-06-22T09:20:38;3.47;;;2.88;;
13855;SDS011;6998;53.608;9.958;2023-06-22T09:23:05;3.55;;;2.88;;
13855;SDS011;6998;53.608;9.958;2023-06-22T09:25:32;2.92;;;2.63;;
13855;SDS011;6998;53.608;9.958;2023-06-22T09:27:59;3.33;;;2.50;;
13855;SDS011;6998;53.608;9.958;2023-06-22T09:30:26;4.25;;;3.15;;
13855;SDS011;6998;53.608;9.958;2023-06-22T09:32:53;4.35;;;3.25;;
13855;SDS011;6998;53.608;9.958;2023-06-22T09:35:20;3.28;;;2.95;;
13855;SDS011;6998;53.608;9.958;2023-06-22T09:37:48;3.17;;;2.88;;
13855;SDS011;6998;53.608;9.958;2023-06-22T09:40:15;3.03;;;2.72;;
13855;SDS011;6998;53.608;9.958;2023-06-22T09:42:42;3.03;;;2.67;;
13855;SDS011;6998;53.608;9.958;2023-06-22T09:45:09;3.03;;;2.72;;
13855;SDS011;6998;53.608;9.958;2023-06-22T09:47:36;3.95;;;3.28;;
13855;SDS011;6998;53.608;9.958;2023-06-22T09:50:03;3.40;;;3.10;;
13855;SDS011;6998;53.608;9.958;2023-06-22T09:52:32;3.92;;;2.80;;
13855;SDS011;6998;53.608;9.958;2023-06-22T09:55:00;3.30;;;3.00;;
13855;SDS011;6998;53.608;9.958;2023-06-22T09:57:28;3.30;;;3.00;;
13855;SDS011;6998;53.608;9.958;2023-06-22T09:59:55;4.25;;;2.80;;
13855;SDS011;6998;53.608;9.958;2023-06-22T10:02:22;4.65;;;2.80;;
13855;SDS011;6998;53.608;9.958;2023-06-22T10:04:49;3.45;;;3.15;;
13855;SDS011;6998;53.608;9.958;2023-06-22T10:07:18;3.35;;;3.00;;
13855;SDS011;6998;53.608;9.958;2023-06-22T10:09:45;4.50;;;3.30;;
13855;SDS011;6998;53.608;9.958;2023-06-22T10:12:13;3.83;;;3.50;;
13855;SDS011;6998;53.608;9.958;2023-06-22T10:14:39;3.78;;;3.28;;
13855;SDS011;6998;53.608;9.958;2023-06-22T10:17:06;2.90;;;2.58;;
13855;SDS011;6998;53.608;9.958;2023-06-22T10:19:35;2.85;;;2.63;;
13855;SDS011;6998;53.608;9.958;2023-06-22T10:22:03;3.97;;;2.80;;
13855;SDS011;6998;53.608;9.958;2023-06-22T10:24:31;4.30;;;2.75;;
13855;SDS011;6998;53.608;9.958;2023-06-22T10:26:57;3.95;;;3.13;;
13855;SDS011;6998;53.608;9.958;2023-06-22T10:29:26;3.63;;;3.30;;
13855;SDS011;6998;53.608;9.958;2023-06-22T10:31:53;3.10;;;2.80;;
13855;SDS011;6998;53.608;9.958;2023-06-22T10:34:19;4.35;;;2.85;;
13855;SDS011;6998;53.608;9.958;2023-06-22T10:36:46;2.63;;;2.30;;
13855;SDS011;6998;53.608;9.958;2023-06-22T10:39:16;3.45;;;3.10;;
13855;SDS011;6998;53.608;9.958;2023-06-22T10:41:43;2.75;;;2.55;;
13855;SDS011;6998;53.608;9.958;2023-06-22T10:44:09;4.03;;;2.78;;
13855;SDS011;6998;53.608;9.958;2023-06-22T10:46:38;3.05;;;2.75;;
13855;SDS011;6998;53.608;9.958;2023-06-22T10:49:05;3.38;;;2.60;;
13855;SDS011;6998;53.608;9.958;2023-06-22T10:51:32;2.72;;;2.30;;
13855;SDS011;6998;53.608;9.958;2023-06-22T10:53:59;2.88;;;2.67;;
13855;SDS011;6998;53.608;9.958;2023-06-22T10:56:27;2.83;;;2.63;;
13855;SDS011;6998;53.608;9.958;2023-06-22T10:58:54;3.50;;;2.47;;
13855;SDS011;6998;53.608;9.958;2023-06-22T11:01:21;6.68;;;3.33;;
13855;SDS011;6998;53.608;9.958;2023-06-22T11:03:50;4.32;;;3.50;;
13855;SDS011;6998;53.608;9.958;2023-06-22T11:06:17;3.50;;;3.08;;
13855;SDS011;6998;53.608;9.958;2023-06-22T11:08:44;4.50;;;3.40;;
13855;SDS011;6998;53.608;9.958;2023-06-22T11:11:11;3.55;;;3.13;;
13855;SDS011;6998;53.608;9.958;2023-06-22T11:13:38;3.28;;;2.90;;
13855;SDS011;6998;53.608;9.958;2023-06-22T11:16:04;3.47;;;2.85;;
13855;SDS011;6998;53.608;9.958;2023-06-22T11:18:31;2.60;;;2.40;;
13855;SDS011;6998;53.608;9.958;2023-06-22T11:21:00;3.33;;;2.40;;
13855;SDS011;6998;53.608;9.958;2023-06-22T11:23:27;3.10;;;2.80;;
13855;SDS011;6998;53.608;9.958;2023-06-22T11:25:53;3.42;;;3.13;;
13855;SDS011;6998;53.608;9.958;2023-06-22T11:28:20;3.25;;;3.05;;
13855;SDS011;6998;53.608;9.958;2023-06-22T11:30:47;3.58;;;3.00;;
13855;SDS011;6998;53.608;9.958;2023-06-22T11:33:14;4.65;;;3.40;;
13855;SDS011;6998;53.608;9.958;2023-06-22T11:35:41;4.55;;;3.22;;
13855;SDS011;6998;53.608;9.958;2023-06-22T11:38:11;4.18;;;3.05;;
13855;SDS011;6998;53.608;9.958;2023-06-22T11:40:38;3.80;;;3.50;;
13855;SDS011;6998;53.608;9.958;2023-06-22T11:43:05;3.90;;;3.50;;
13855;SDS011;6998;53.608;9.958;2023-06-22T11:45:32;3.40;;;3.10;;
13855;SDS011;6998;53.608;9.958;2023-06-22T11:47:59;3.13;;;2.90;;
13855;SDS011;6998;53.608;9.958;2023-06-22T11:50:25;3.92;;;3.63;;
13855;SDS011;6998;53.608;9.958;2023-06-22T11:52:53;3.63;;;3.33;;
13855;SDS011;6998;53.608;9.958;2023-06-22T11:55:22;3.83;;;3.50;;
13855;SDS011;6998;53.608;9.958;2023-06-22T11:57:52;4.57;;;4.03;;
13855;SDS011;6998;53.608;9.958;2023-06-22T12:00:20;5.63;;;3.22;;
13855;SDS011;6998;53.608;9.958;2023-06-22T12:02:49;3.83;;;3.42;;
13855;SDS011;6998;53.608;9.958;2023-06-22T12:05:16;4.25;;;3.45;;
13855;SDS011;6998;53.608;9.958;2023-06-22T12:07:44;4.22;;;3.80;;
13855;SDS011;6998;53.608;9.958;2023-06-22T12:10:10;3.90;;;3.28;;
13855;SDS011;6998;53.608;9.958;2023-06-22T12:12:39;2.90;;;2.70;;
13855;SDS011;6998;53.608;9.958;2023-06-22T12:15:06;3.65;;;3.30;;
13855;SDS011;6998;53.608;9.958;2023-06-22T12:17:33;3.13;;;2.83;;
13855;SDS011;6998;53.608;9.958;2023-06-22T12:20:00;2.80;;;2.55;;
13855;SDS011;6998;53.608;9.958;2023-06-22T12:22:30;3.92;;;3.08;;
13855;SDS011;6998;53.608;9.958;2023-06-22T12:24:57;3.60;;;3.30;;
13855;SDS011;6998;53.608;9.958;2023-06-22T12:27:25;3.53;;;3.22;;
13855;SDS011;6998;53.608;9.958;2023-06-22T12:29:53;3.53;;;3.20;;
13855;SDS011;6998;53.608;9.958;2023-06-22T12:32:20;3.58;;;3.10;;
13855;SDS011;6998;53.608;9.958;2023-06-22T12:34:46;3.83;;;3.50;;
13855;SDS011;6998;53.608;9.958;2023-06-22T12:37:13;4.22;;;3.17;;
13855;SDS011;6998;53.608;9.958;2023-06-22T12:39:40;4.00;;;3.28;;
13855;SDS011;6998;53.608;9.958;2023-06-22T12:42:07;3.38;;;3.08;;
13855;SDS011;6998;53.608;9.958;2023-06-22T12:44:37;3.38;;;3.08;;
13855;SDS011;6998;53.608;9.958;2023-06-22T12:47:06;3.35;;;3.05;;
13855;SDS011;6998;53.608;9.958;2023-06-22T12:49:33;4.13;;;3.50;;
13855;SDS011;6998;53.608;9.958;2023-06-22T12:52:00;3.90;;;3.50;;
13855;SDS011;6998;53.608;9.958;2023-06-22T12:54:27;4.03;;;3.60;;
13855;SDS011;6998;53.608;9.958;2023-06-22T12:56:54;4.28;;;3.55;;
13855;SDS011;6998;53.608;9.958;2023-06-22T12:59:21;3.80;;;3.50;;
13855;SDS011;6998;53.608;9.958;2023-06-22T13:01:48;4.03;;;3.60;;
13855;SDS011;6998;53.608;9.958;2023-06-22T13:04:16;4.03;;;3.50;;
13855;SDS011;6998;53.608;9.958;2023-06-22T13:06:44;5.88;;;4.10;;
13855;SDS011;6998;53.608;9.958;2023-06-22T13:09:13;4.15;;;3.75;;
13855;SDS011;6998;53.608;9.958;2023-06-22T13:11:40;3.90;;;3.50;;
13855;SDS011;6998;53.608;9.958;2023-06-22T13:14:08;4.65;;;4.18;;
13855;SDS011;6998;53.608;9.958;2023-06-22T13:16:35;3.85;;;3.55;;
13855;SDS011;6998;53.608;9.958;2023-06-22T13:19:01;4.10;;;3.70;;
13855;SDS011;6998;53.608;9.958;2023-06-22T13:21:30;4.05;;;3.75;;
13855;SDS011;6998;53.608;9.958;2023-06-22T13:23:57;4.25;;;3.85;;
13855;SDS011;6998;53.608;9.958;2023-06-22T13:26:24;4.40;;;4.00;;
13855;SDS011;6998;53.608;9.958;2023-06-22T13:28:55;3.88;;;3.58;;
13855;SDS011;6998;53.608;9.958;2023-06-22T13:31:22;4.20;;;3.80;;
13855;SDS011;6998;53.608;9.958;2023-06-22T13:33:49;3.67;;;3.38;;
13855;SDS011;6998;53.608;9.958;2023-06-22T13:36:17;4.10;;;3.80;;
13855;SDS011;6998;53.608;9.958;2023-06-22T13:38:45;4.20;;;3.63;;
13855;SDS011;6998;53.608;9.958;2023-06-22T13:41:12;4.28;;;3.88;;
13855;SDS011;6998;53.608;9.958;2023-06-22T13:43:39;4.57;;;4.18;;
13855;SDS011;6998;53.608;9.958;2023-06-22T13:46:06;3.85;;;3.55;;
13855;SDS011;6998;53.608;9.958;2023-06-22T13:48:33;5.88;;;4.15;;
13855;SDS011;6998;53.608;9.958;2023-06-22T13:50:59;4.22;;;3.70;;
13855;SDS011;6998;53.608;9.958;2023-06-22T13:53:26;4.60;;;4.20;;
13855;SDS011;6998;53.608;9.958;2023-06-22T13:55:55;4.55;;;4.15;;
13855;SDS011;6998;53.608;9.958;2023-06-22T13:58:22;5.28;;;3.90;;
13855;SDS011;6998;53.608;9.958;2023-06-22T14:00:49;3.90;;;3.60;;
13855;SDS011;6998;53.608;9.958;2023-06-22T14:03:15;4.45;;;4.05;;
13855;SDS011;6998;53.608;9.958;2023-06-22T14:05:42;4.20;;;3.80;;
13855;SDS011;6998;53.608;9.958;2023-06-22T14:08:09;5.43;;;3.70;;
13855;SDS011;6998;53.608;9.958;2023-06-22T14:10:35;3.60;;;3.30;;
13855;SDS011;6998;53.608;9.958;2023-06-22T14:13:04;4.18;;;3.78;;
13855;SDS011;6998;53.608;9.958;2023-06-22T14:15:31;3.75;;;3.45;;
13855;SDS011;6998;53.608;9.958;2023-06-22T14:17:58;4.00;;;3.70;;
13855;SDS011;6998;53.608;9.958;2023-06-22T14:20:25;4.30;;;4.00;;
13855;SDS011;6998;53.608;9.958;2023-06-22T14:22:52;4.00;;;3.70;;
13855;SDS011;6998;53.608;9.958;2023-06-22T14:25:18;4.00;;;3.70;;
13855;SDS011;6998;53.608;9.958;2023-06-22T14:27:45;5.13;;;4.60;;
13855;SDS011;6998;53.608;9.958;2023-06-22T14:30:13;4.15;;;3.85;;
13855;SDS011;6998;53.608;9.958;2023-06-22T14:32:40;5.07;;;4.47;;
13855;SDS011;6998;53.608;9.958;2023-06-22T14:35:10;7.03;;;3.72;;
13855;SDS011;6998;53.608;9.958;2023-06-22T14:37:37;4.18;;;3.75;;
13855;SDS011;6998;53.608;9.958;2023-06-22T14:40:04;3.65;;;3.35;;
13855;SDS011;6998;53.608;9.958;2023-06-22T14:42:32;5.32;;;3.83;;
13855;SDS011;6998;53.608;9.958;2023-06-22T14:44:58;6.30;;;3.90;;
13855;SDS011;6998;53.608;9.958;2023-06-22T14:47:26;3.88;;;3.58;;
13855;SDS011;6998;53.608;9.958;2023-06-22T14:49:53;5.15;;;3.60;;
13855;SDS011;6998;53.608;9.958;2023-06-22T14:52:21;4.18;;;3.83;;
13855;SDS011;6998;53.608;9.958;2023-06-22T14:54:47;4.45;;;4.05;;
13855;SDS011;6998;53.608;9.958;2023-06-22T14:57:16;4.03;;;3.72;;
13855;SDS011;6998;53.608;9.958;2023-06-22T14:59:44;4.30;;;3.90;;
13855;SDS011;6998;53.608;9.958;2023-06-22T15:02:11;4.28;;;3.88;;
13855;SDS011;6998;53.608;9.958;2023-06-22T15:04:40;4.47;;;4.18;;
13855;SDS011;6998;53.608;9.958;2023-06-22T15:07:06;6.45;;;3.80;;
13855;SDS011;6998;53.608;9.958;2023-06-22T15:09:33;4.90;;;4.03;;